createdAt,value
2023-03-20T00:04:35.079Z,25.2
2023-03-20T00:19:45.127Z,23.3
2023-03-20T00:34:54.830Z,23.5
2023-03-20T00:50:04.043Z,24.1
2023-03-20T01:05:13.693Z,26.6
2023-03-20T01:20:25.110Z,26.6
2023-03-20T01:35:35.528Z,23.6
2023-03-20T01:50:46.066Z,16.1
2023-03-20T02:05:55.380Z,18.4
2023-03-20T02:21:04.845Z,16.1
2023-03-20T02:36:14.339Z,16.4
2023-03-20T02:51:23.737Z,17
2023-03-20T03:06:33.464Z,16.7
2023-03-20T03:21:42.783Z,17.8
2023-03-20T03:36:52.066Z,19.8
2023-03-20T03:52:01.501Z,19.6
2023-03-20T04:07:11.258Z,19.5
2023-03-20T04:22:21.663Z,20
2023-03-20T04:37:31.134Z,22.5
2023-03-20T04:52:40.847Z,22.8
2023-03-20T05:07:50.612Z,22.7
2023-03-20T05:23:00.494Z,23.6
2023-03-20T05:38:10.132Z,24.3
2023-03-20T05:53:19.969Z,25.1
2023-03-20T06:08:29.523Z,24.6
2023-03-20T06:23:39.142Z,23.2
2023-03-20T06:38:48.610Z,24
2023-03-20T06:53:58.169Z,21
2023-03-20T07:09:07.802Z,22.9
2023-03-20T07:24:17.821Z,20.2
2023-03-20T07:39:27.147Z,18.3
2023-03-20T07:54:36.635Z,19.3
2023-03-20T08:09:45.813Z,17.4
2023-03-20T08:24:55.907Z,16.6
2023-03-20T08:40:05.146Z,14.6
2023-03-20T08:55:15.066Z,11.4
2023-03-20T09:10:26.474Z,14.5
2023-03-20T09:25:36.846Z,14.3
2023-03-20T09:40:47.648Z,15.3
2023-03-20T09:55:58.308Z,11.6
2023-03-20T10:11:08.207Z,9.2
2023-03-20T10:26:18.136Z,8.3
2023-03-20T10:41:27.465Z,8.1
2023-03-20T10:56:37.331Z,7.6
2023-03-20T11:11:47.433Z,6.1
2023-03-20T11:26:57.161Z,4.7
2023-03-20T11:42:06.946Z,5.4
2023-03-20T11:57:17.134Z,4.6
2023-03-20T12:12:27.261Z,5.3
2023-03-20T12:27:36.682Z,5.6
2023-03-20T12:42:46.493Z,4.7
2023-03-20T12:57:56.140Z,4.8
2023-03-20T13:13:05.868Z,4.5
2023-03-20T13:28:15.027Z,4.2
2023-03-20T13:43:28.086Z,4.1
2023-03-20T13:58:37.740Z,4.2
2023-03-20T14:13:47.416Z,3.5
2023-03-20T14:28:57.190Z,3.2
2023-03-20T14:44:06.037Z,3.3
2023-03-20T14:59:15.552Z,4.1
2023-03-20T15:14:27.895Z,4.2
2023-03-20T15:29:37.941Z,3.2
2023-03-20T15:44:47.947Z,3.5
2023-03-20T15:59:58.276Z,3.7
2023-03-20T16:15:07.837Z,3.9
2023-03-20T16:30:17.373Z,3.9
2023-03-20T16:45:27.894Z,5
2023-03-20T17:00:37.985Z,8.4
2023-03-20T17:15:48.980Z,9.4
2023-03-20T17:30:58.099Z,8.7
2023-03-20T17:46:07.573Z,8.8
2023-03-20T18:01:17.360Z,9.8
2023-03-20T18:16:27.575Z,8.7
2023-03-20T18:31:40.125Z,7.6
2023-03-20T18:46:53.198Z,8.5
2023-03-20T19:02:02.645Z,10
2023-03-20T19:17:12.555Z,7.4
2023-03-20T19:32:22.077Z,8.3
2023-03-20T19:47:31.962Z,9.4
2023-03-20T20:02:42.883Z,10.8
2023-03-20T20:17:53.538Z,12
2023-03-20T20:33:05.796Z,15.6
2023-03-20T20:48:19.124Z,16.6
2023-03-20T21:03:27.334Z,17.8
2023-03-20T21:18:36.954Z,17.9
2023-03-20T21:33:46.928Z,20.9
2023-03-20T21:50:36.945Z,22.3
2023-03-20T23:00:14.079Z,25
2023-03-20T23:15:23.372Z,24.3
2023-03-20T23:30:51.692Z,23.4
2023-03-20T23:46:21.765Z,22.5
